createdAt,value
2022-12-23T00:01:05.215Z,89.48
2022-12-23T00:04:08.862Z,89.39
2022-12-23T00:07:11.349Z,88.92
2022-12-23T00:10:14.010Z,88.94
2022-12-23T00:13:35.691Z,89.03
2022-12-23T00:16:38.711Z,89.41
2022-12-23T00:19:41.246Z,89.49
2022-12-23T00:23:02.688Z,89.25
2022-12-23T00:26:06.211Z,89.20
2022-12-23T00:29:09.509Z,89.34
2022-12-23T00:32:12.072Z,88.92
2022-12-23T00:35:14.552Z,89.10
2022-12-23T00:38:38.173Z,89.27
2022-12-23T00:41:59.568Z,89.14
2022-12-23T00:45:15.874Z,89.39
2022-12-23T00:48:36.817Z,89.11
2022-12-23T00:51:39.360Z,89.28
2022-12-23T00:54:42.083Z,89.06
2022-12-23T00:57:44.591Z,88.91
2022-12-23T01:01:06.397Z,89.13
2022-12-23T01:04:31.828Z,88.92
2022-12-23T01:07:34.305Z,88.99
2022-12-23T01:10:48.256Z,89.12
2022-12-23T01:13:50.856Z,89.33
2022-12-23T01:16:53.404Z,89.87
2022-12-23T01:19:56.034Z,90.01
2022-12-23T01:22:59.563Z,90.38
2022-12-23T01:26:07.004Z,89.96
2022-12-23T01:29:09.505Z,90.39
2022-12-23T01:32:11.997Z,90.33
2022-12-23T01:35:14.578Z,90.28
2022-12-23T01:38:17.901Z,90.25
2022-12-23T01:41:42.177Z,90.19
2022-12-23T01:44:57.965Z,89.66
2022-12-23T01:48:38.881Z,90.16
2022-12-23T01:51:41.828Z,90.65
2022-12-23T01:54:45.360Z,90.24
2022-12-23T01:57:48.579Z,89.88
2022-12-23T02:01:10.902Z,89.68
2022-12-23T02:04:17.584Z,90.00
2022-12-23T02:07:39.702Z,89.78
2022-12-23T02:11:06.296Z,89.45
2022-12-23T02:15:04.650Z,89.03
2022-12-23T02:18:33.695Z,89.44
2022-12-23T02:22:05.012Z,89.50
2022-12-23T02:25:27.911Z,89.11
2022-12-23T02:28:51.455Z,88.05
2022-12-23T02:32:08.907Z,88.29
2022-12-23T02:35:18.238Z,88.91
2022-12-23T02:38:38.067Z,88.45
2022-12-23T02:41:48.182Z,88.52
2022-12-23T02:45:14.503Z,88.87
2022-12-23T02:48:28.981Z,87.34
2022-12-23T02:51:36.740Z,87.51
2022-12-23T02:54:45.434Z,87.99
2022-12-23T02:57:51.174Z,88.38
2022-12-23T03:00:55.611Z,87.99
2022-12-23T03:03:58.288Z,88.61
2022-12-23T03:07:07.447Z,88.65
2022-12-23T03:10:23.970Z,88.56
2022-12-23T03:13:57.219Z,88.38
2022-12-23T03:17:31.202Z,88.36
2022-12-23T03:20:56.810Z,88.50
2022-12-23T03:24:02.174Z,88.84
2022-12-23T03:27:36.302Z,89.18
2022-12-23T03:30:43.136Z,89.48
2022-12-23T03:33:52.010Z,89.86
2022-12-23T03:36:58.986Z,89.81
2022-12-23T03:40:10.694Z,89.37
2022-12-23T03:43:37.104Z,89.00
2022-12-23T03:46:46.688Z,89.10
2022-12-23T03:50:03.159Z,89.51
2022-12-23T03:53:12.940Z,89.19
2022-12-23T03:56:21.812Z,89.29
2022-12-23T03:59:31.799Z,89.68
2022-12-23T04:02:46.366Z,91.49
2022-12-23T04:05:55.802Z,91.20
2022-12-23T04:08:59.113Z,91.74
2022-12-23T04:12:01.722Z,91.94
2022-12-23T04:15:09.110Z,92.05
2022-12-23T04:18:16.426Z,92.11
2022-12-23T04:21:19.233Z,92.18
2022-12-23T04:24:21.782Z,92.54
2022-12-23T04:27:24.186Z,92.42
2022-12-23T04:30:33.961Z,92.44
2022-12-23T04:33:37.040Z,92.45
2022-12-23T04:36:39.572Z,92.50
2022-12-23T04:39:42.121Z,92.71
2022-12-23T04:42:44.610Z,92.83
2022-12-23T04:45:51.388Z,92.83
2022-12-23T04:48:53.854Z,92.92
2022-12-23T04:51:56.352Z,93.13
2022-12-23T04:54:58.804Z,93.02
2022-12-23T04:58:01.288Z,93.02
2022-12-23T05:01:10.071Z,93.26
2022-12-23T05:04:12.776Z,93.23
2022-12-23T05:07:15.300Z,93.79
2022-12-23T05:10:17.879Z,93.39
2022-12-23T05:13:20.632Z,93.54
2022-12-23T05:16:24.084Z,93.59
2022-12-23T05:19:26.859Z,93.48
2022-12-23T05:22:29.357Z,93.19
2022-12-23T05:25:36.659Z,93.27
2022-12-23T05:28:39.158Z,93.47
2022-12-23T05:31:41.949Z,93.47
2022-12-23T05:34:44.426Z,93.49
2022-12-23T05:37:46.890Z,93.83
2022-12-23T05:40:51.582Z,93.82
2022-12-23T05:43:54.151Z,93.74
2022-12-23T05:46:56.541Z,93.37
2022-12-23T05:49:59.025Z,93.44
2022-12-23T05:53:01.543Z,93.59
2022-12-23T05:56:05.660Z,93.36
2022-12-23T05:59:08.229Z,93.06
2022-12-23T06:02:11.180Z,92.94
2022-12-23T06:05:14.147Z,92.67
2022-12-23T06:08:16.754Z,92.85
2022-12-23T06:11:19.423Z,93.11
2022-12-23T06:14:28.325Z,92.92
2022-12-23T06:17:31.371Z,93.09
2022-12-23T06:20:34.987Z,93.13
2022-12-23T06:23:37.565Z,93.24
2022-12-23T06:26:40.049Z,93.17
2022-12-23T06:29:42.699Z,93.15
2022-12-23T06:32:45.356Z,93.15
2022-12-23T06:35:47.852Z,93.28
2022-12-23T06:38:50.295Z,93.26
2022-12-23T06:41:52.863Z,93.16
2022-12-23T06:44:55.358Z,93.06
2022-12-23T06:47:57.761Z,93.04
2022-12-23T06:51:02.364Z,93.00
2022-12-23T06:54:04.932Z,93.28
2022-12-23T06:57:07.454Z,92.76
2022-12-23T07:00:10.718Z,92.65
2022-12-23T07:03:13.414Z,92.44
2022-12-23T07:06:16.446Z,92.60
2022-12-23T07:09:19.065Z,92.37
2022-12-23T07:12:21.612Z,92.43
2022-12-23T07:15:24.199Z,92.61
2022-12-23T07:18:26.825Z,92.41
2022-12-23T07:21:30.151Z,92.31
2022-12-23T07:24:33.020Z,92.24
2022-12-23T07:27:35.491Z,92.06
2022-12-23T07:30:41.818Z,91.95
2022-12-23T07:33:44.662Z,91.93
2022-12-23T07:36:47.084Z,92.15
2022-12-23T07:39:49.800Z,91.92
2022-12-23T07:42:59.056Z,92.11
2022-12-23T07:46:09.509Z,92.00
2022-12-23T07:49:12.131Z,91.78
2022-12-23T07:52:14.969Z,91.67
2022-12-23T07:55:17.752Z,91.93
2022-12-23T07:58:20.186Z,92.06
2022-12-23T08:01:22.978Z,91.36
2022-12-23T08:04:25.458Z,91.54
2022-12-23T08:07:28.063Z,90.79
2022-12-23T08:10:30.781Z,90.85
2022-12-23T08:13:35.298Z,90.77
2022-12-23T08:16:43.351Z,90.79
2022-12-23T08:19:46.791Z,90.97
2022-12-23T08:22:49.441Z,91.17
2022-12-23T08:26:11.144Z,90.74
2022-12-23T08:29:13.556Z,90.46
2022-12-23T08:32:16.183Z,90.05
2022-12-23T08:35:18.599Z,90.49
2022-12-23T08:38:21.101Z,90.42
2022-12-23T08:41:28.162Z,90.67
2022-12-23T08:44:32.698Z,90.83
2022-12-23T08:47:35.151Z,90.48
2022-12-23T08:50:39.351Z,90.21
2022-12-23T08:53:41.955Z,90.59
2022-12-23T08:56:44.957Z,90.66
2022-12-23T08:59:47.757Z,90.96
2022-12-23T09:02:50.474Z,91.47
2022-12-23T09:05:52.954Z,91.41
2022-12-23T09:08:56.069Z,90.85
2022-12-23T09:11:58.551Z,90.90
2022-12-23T09:15:01.029Z,89.76
2022-12-23T09:18:03.539Z,89.42
2022-12-23T09:21:09.041Z,89.59
2022-12-23T09:24:11.656Z,89.78
2022-12-23T09:27:14.075Z,89.72
2022-12-23T09:30:16.993Z,89.69
2022-12-23T09:33:19.912Z,89.62
2022-12-23T09:36:23.059Z,89.32
2022-12-23T09:39:25.804Z,89.25
2022-12-23T09:42:48.074Z,89.21
2022-12-23T09:46:09.611Z,89.49
2022-12-23T09:49:15.387Z,89.55
2022-12-23T09:52:27.364Z,89.46
2022-12-23T09:55:57.480Z,89.40
2022-12-23T09:59:13.543Z,89.17
2022-12-23T10:02:28.814Z,89.25
2022-12-23T10:05:50.261Z,88.95
2022-12-23T10:08:58.531Z,88.95
2022-12-23T10:12:22.330Z,89.13
2022-12-23T10:15:48.101Z,88.68
2022-12-23T10:19:08.927Z,89.29
2022-12-23T10:22:25.138Z,89.63
2022-12-23T10:25:37.604Z,89.34
2022-12-23T10:28:40.007Z,89.03
2022-12-23T10:31:56.756Z,89.37
2022-12-23T10:35:15.831Z,89.96
2022-12-23T10:38:42.958Z,89.39
2022-12-23T10:42:27.913Z,89.81
2022-12-23T10:46:01.440Z,89.88
2022-12-23T10:49:12.540Z,90.09
2022-12-23T10:52:23.542Z,90.05
2022-12-23T10:55:33.865Z,89.79
2022-12-23T10:58:43.831Z,89.85
2022-12-23T11:01:52.780Z,90.43
2022-12-23T11:04:55.373Z,90.76
2022-12-23T11:07:58.726Z,90.64
2022-12-23T11:11:02.312Z,90.64
2022-12-23T11:14:04.865Z,90.51
2022-12-23T11:17:34.507Z,90.39
2022-12-23T11:20:44.975Z,90.22
2022-12-23T11:23:47.525Z,90.05
2022-12-23T11:27:04.471Z,89.85
2022-12-23T11:30:20.052Z,89.37
2022-12-23T11:33:34.293Z,89.14
2022-12-23T11:36:36.745Z,89.34
2022-12-23T11:39:39.674Z,89.31
2022-12-23T11:42:42.786Z,89.52
2022-12-23T11:45:45.347Z,89.59
2022-12-23T11:48:54.436Z,90.10
2022-12-23T11:52:06.147Z,89.72
2022-12-23T11:55:24.262Z,89.93
2022-12-23T11:58:29.608Z,89.87
2022-12-23T12:01:32.795Z,89.68
2022-12-23T12:04:36.307Z,89.76
2022-12-23T12:07:43.419Z,90.24
2022-12-23T12:10:46.187Z,90.38
2022-12-23T12:13:52.355Z,90.07
2022-12-23T12:17:05.991Z,90.07
2022-12-23T12:20:19.216Z,90.16
2022-12-23T12:23:28.590Z,89.97
2022-12-23T12:26:34.707Z,89.90
2022-12-23T12:30:01.081Z,90.42
2022-12-23T12:33:33.908Z,90.25
2022-12-23T12:37:25.540Z,89.90
2022-12-23T12:40:40.980Z,89.92
2022-12-23T12:44:00.544Z,90.14
2022-12-23T12:47:54.424Z,90.14
2022-12-23T12:51:36.336Z,90.65
2022-12-23T12:55:13.597Z,90.08
2022-12-23T12:58:20.283Z,90.33
2022-12-23T13:01:31.052Z,90.40
2022-12-23T13:04:42.541Z,90.20
2022-12-23T13:08:22.587Z,89.90
2022-12-23T13:12:06.491Z,89.81
2022-12-23T13:15:11.565Z,89.77
2022-12-23T13:18:58.330Z,89.32
2022-12-23T13:22:06.954Z,89.08
2022-12-23T13:25:20.019Z,88.57
2022-12-23T13:28:44.556Z,88.50
2022-12-23T13:32:22.854Z,87.92
2022-12-23T13:35:43.612Z,87.78
2022-12-23T13:38:59.792Z,87.99
2022-12-23T13:42:06.123Z,88.42
2022-12-23T13:45:15.449Z,87.97
2022-12-23T13:48:39.450Z,88.15
2022-12-23T13:52:20.953Z,87.82
2022-12-23T13:55:35.423Z,87.76
2022-12-23T13:58:40.342Z,87.77
2022-12-23T14:01:46.907Z,87.41
2022-12-23T14:04:55.497Z,87.64
2022-12-23T14:08:00.252Z,87.63
2022-12-23T14:11:12.699Z,87.69
2022-12-23T14:14:22.525Z,87.01
2022-12-23T14:17:39.320Z,87.03
2022-12-23T14:21:19.234Z,87.31
2022-12-23T14:24:43.201Z,87.49
2022-12-23T14:27:56.687Z,87.44
2022-12-23T14:31:05.433Z,87.50
2022-12-23T14:34:28.929Z,86.93
2022-12-23T14:37:33.708Z,86.70
2022-12-23T14:40:38.041Z,86.70
2022-12-23T14:43:46.206Z,86.93
2022-12-23T14:46:48.861Z,87.09
2022-12-23T14:49:51.787Z,87.61
2022-12-23T14:53:22.983Z,86.90
2022-12-23T14:56:40.796Z,88.02
2022-12-23T15:00:04.389Z,87.54
2022-12-23T15:03:11.523Z,88.19
2022-12-23T15:06:19.287Z,88.36
2022-12-23T15:09:27.925Z,88.07
2022-12-23T15:12:33.757Z,88.14
2022-12-23T15:15:36.513Z,88.39
2022-12-23T15:18:52.486Z,88.54
2022-12-23T15:22:20.708Z,88.40
2022-12-23T15:25:35.617Z,88.74
2022-12-23T15:28:41.232Z,89.18
2022-12-23T15:31:56.701Z,89.19
2022-12-23T15:35:06.729Z,89.36
2022-12-23T15:38:15.617Z,89.30
2022-12-23T15:41:18.827Z,89.33
2022-12-23T15:44:23.910Z,89.16
2022-12-23T15:47:32.213Z,88.79
2022-12-23T15:50:42.094Z,89.22
2022-12-23T15:53:47.595Z,89.32
2022-12-23T15:56:53.508Z,89.64
2022-12-23T15:59:58.670Z,88.90
2022-12-23T16:03:03.375Z,88.93
2022-12-23T16:06:33.071Z,88.97
2022-12-23T16:09:40.302Z,89.29
2022-12-23T16:12:43.886Z,89.27
2022-12-23T16:15:47.035Z,89.21
2022-12-23T16:18:49.599Z,89.20
2022-12-23T16:21:52.148Z,89.34
2022-12-23T16:25:17.133Z,89.47
2022-12-23T16:28:24.352Z,89.71
2022-12-23T16:31:27.321Z,89.48
2022-12-23T16:34:31.130Z,89.70
2022-12-23T16:37:33.544Z,89.56
2022-12-23T16:40:36.777Z,89.32
2022-12-23T16:43:44.548Z,89.29
2022-12-23T16:46:52.267Z,89.51
2022-12-23T16:49:54.796Z,89.47
2022-12-23T16:52:57.243Z,89.87
2022-12-23T16:56:01.023Z,89.97
2022-12-23T16:59:04.501Z,89.84
2022-12-23T17:02:20.738Z,89.68
2022-12-23T17:05:24.147Z,89.85
2022-12-23T17:08:26.591Z,89.98
2022-12-23T17:11:36.070Z,90.04
2022-12-23T17:14:38.878Z,90.29
2022-12-23T17:17:41.448Z,90.08
2022-12-23T17:20:47.746Z,89.74
2022-12-23T17:23:57.488Z,89.58
2022-12-23T17:26:59.970Z,89.55
2022-12-23T17:30:02.653Z,89.35
2022-12-23T17:33:05.704Z,89.61
2022-12-23T17:36:11.113Z,89.63
2022-12-23T17:39:13.769Z,89.79
2022-12-23T17:42:24.916Z,89.76
2022-12-23T17:45:31.105Z,89.73
2022-12-23T17:48:33.603Z,90.20
2022-12-23T17:51:36.281Z,89.98
2022-12-23T17:54:39.783Z,90.67
2022-12-23T17:57:42.231Z,90.98
2022-12-23T18:00:47.653Z,90.87
2022-12-23T18:03:50.999Z,90.91
2022-12-23T18:06:53.532Z,90.47
2022-12-23T18:09:55.972Z,90.45
2022-12-23T18:13:01.693Z,90.34
2022-12-23T18:16:04.240Z,90.27
2022-12-23T18:19:15.327Z,89.96
2022-12-23T18:22:20.429Z,89.23
2022-12-23T18:25:25.561Z,89.65
2022-12-23T18:28:28.105Z,90.25
2022-12-23T18:31:31.111Z,90.42
2022-12-23T18:34:33.774Z,90.69
2022-12-23T18:37:36.229Z,90.86
2022-12-23T18:40:40.176Z,90.61
2022-12-23T18:43:42.806Z,90.09
2022-12-23T18:46:45.448Z,90.34
2022-12-23T18:49:48.033Z,90.54
2022-12-23T18:52:50.761Z,90.46
2022-12-23T18:55:54.375Z,90.16
2022-12-23T18:58:56.915Z,90.50
2022-12-23T19:02:00.160Z,90.82
2022-12-23T19:05:02.748Z,90.80
2022-12-23T19:08:05.323Z,91.03
2022-12-23T19:11:20.526Z,91.38
2022-12-23T19:14:23.429Z,91.86
2022-12-23T19:17:25.924Z,91.65
2022-12-23T19:20:28.523Z,91.54
2022-12-23T19:23:31.128Z,91.54
2022-12-23T19:26:33.688Z,91.94
2022-12-23T19:29:36.243Z,92.11
2022-12-23T19:32:38.648Z,91.43
2022-12-23T19:35:42.243Z,91.74
2022-12-23T19:38:45.460Z,91.54
2022-12-23T19:41:48.103Z,91.80
2022-12-23T19:44:50.544Z,91.76
2022-12-23T19:47:53.535Z,91.53
2022-12-23T19:51:01.268Z,91.49
2022-12-23T19:54:03.824Z,91.63
2022-12-23T19:57:06.357Z,91.99
2022-12-23T20:00:09.554Z,91.91
2022-12-23T20:03:15.018Z,91.67
2022-12-23T20:06:23.538Z,91.93
2022-12-23T20:09:26.029Z,92.11
2022-12-23T20:12:28.570Z,92.01
2022-12-23T20:15:31.209Z,91.44
2022-12-23T20:18:33.872Z,91.69
2022-12-23T20:21:37.528Z,91.77
2022-12-23T20:24:40.152Z,91.87
2022-12-23T20:27:42.723Z,92.33
2022-12-23T20:30:48.250Z,92.39
2022-12-23T20:33:51.977Z,92.30
2022-12-23T20:36:54.395Z,92.14
2022-12-23T20:39:56.951Z,92.10
2022-12-23T20:42:59.566Z,92.30
2022-12-23T20:46:02.957Z,91.99
2022-12-23T20:49:05.553Z,91.81
2022-12-23T20:52:08.231Z,91.72
2022-12-23T20:55:10.644Z,91.54
2022-12-23T20:58:32.079Z,91.20
2022-12-23T21:01:38.175Z,91.24
2022-12-23T21:04:40.873Z,91.33
2022-12-23T21:07:43.321Z,91.11
2022-12-23T21:10:53.547Z,91.28
2022-12-23T21:14:01.138Z,91.59
2022-12-23T21:17:06.634Z,91.19
2022-12-23T21:20:09.367Z,91.18
2022-12-23T21:23:13.615Z,90.84
2022-12-23T21:26:19.225Z,91.02
2022-12-23T21:29:22.016Z,91.13
2022-12-23T21:32:24.597Z,91.10
2022-12-23T21:35:27.106Z,91.00
2022-12-23T21:38:38.441Z,91.04
2022-12-23T21:41:42.401Z,90.71
2022-12-23T21:44:44.942Z,90.44
2022-12-23T21:47:47.334Z,90.41
2022-12-23T21:50:54.813Z,89.99
2022-12-23T21:53:58.991Z,89.70
2022-12-23T21:57:01.423Z,89.30
2022-12-23T22:00:04.454Z,89.47
2022-12-23T22:03:07.102Z,89.76
2022-12-23T22:06:19.296Z,89.66
2022-12-23T22:09:21.726Z,89.30
2022-12-23T22:12:24.200Z,89.37
2022-12-23T22:15:26.655Z,89.60
2022-12-23T22:18:29.533Z,89.89
2022-12-23T22:21:32.639Z,89.74
2022-12-23T22:24:35.131Z,89.82
2022-12-23T22:27:37.585Z,89.98
2022-12-23T22:30:40.248Z,90.21
2022-12-23T22:33:42.739Z,90.48
2022-12-23T22:36:45.747Z,90.50
2022-12-23T22:39:48.605Z,90.76
2022-12-23T22:42:51.038Z,91.24
2022-12-23T22:46:01.551Z,91.04
2022-12-23T22:49:04.239Z,91.19
2022-12-23T22:52:06.753Z,91.67
2022-12-23T22:55:09.475Z,91.30
2022-12-23T22:58:11.925Z,91.03
2022-12-23T23:01:23.451Z,91.10
2022-12-23T23:04:26.043Z,91.21
2022-12-23T23:07:28.531Z,91.16
2022-12-23T23:10:33.304Z,91.22
2022-12-23T23:13:36.291Z,91.37
2022-12-23T23:16:39.519Z,91.22
2022-12-23T23:19:42.104Z,92.08
2022-12-23T23:22:44.677Z,91.91
2022-12-23T23:25:47.832Z,92.08
2022-12-23T23:28:50.363Z,92.15
2022-12-23T23:31:53.171Z,91.46
2022-12-23T23:34:56.306Z,92.14
2022-12-23T23:37:58.801Z,91.74
2022-12-23T23:41:01.845Z,91.53
2022-12-23T23:44:04.565Z,91.24
2022-12-23T23:47:07.055Z,91.18
2022-12-23T23:50:09.662Z,90.94
2022-12-23T23:53:13.045Z,91.04
2022-12-23T23:56:20.474Z,90.90
2022-12-23T23:59:27.457Z,91.27
